Darlington, New Jersey
Current Conditions -  °F | °C
As of 7:51 PM on Friday 19 Dec 2014 (Local Time) from KTEB Reporting Station
Overcast Overcast  
Wind Chill: 24°   Ceiling: 3300
Heat Index: 32°   Visibility: 10mi
Dew Point: 20°   Wind: 10mph
Humidity: 61%   Direction: 320°NW
Pressure: 30.16"   Gusts: NA
Location:  41.0594°N, 74.1457°W
Report Text: KTEB 200051Z 32009KT 10SM OVC033 00/M07 A3016 RMK AO2 SLP212 T00001067
Loading
Personal Weather Stations






























Interactive Weather Map New forecast layout! Learn more

10-Day Weather Forecast

Advertisements
Track Severe Weather on mobile